Terminal Aerodrome Forecast
Issued by NWS Billings, MT

Home | Current Version | Previous Version | Text Only | Print | Product List | Glossary On
Versions: 1 2 3 4 5 6 7 8 9 10 11 12 13 14 15 16 17 18 19 20 21 22 23 24 25 26 27
000
FTUS45 KBYZ 241720
TAFMLS
TAF
KMLS 241720Z 2418/2518 15009KT P6SM SCT120
     FM242000 27012KT P6SM VCTS SCT070CB
     FM242330 32022G34KT P6SM VCTS SCT050CB BKN150
     FM250100 35020G29KT P6SM SCT120
     FM250500 30010KT P6SM SKC=

USA.gov is the U.S. government's official web portal to all federal, state and local government web resources and services.